createdAt,value
2023-07-24T00:00:41.539Z,26.44
2023-07-24T00:03:12.300Z,26.59
2023-07-24T00:05:44.120Z,26.72
2023-07-24T00:08:14.300Z,26.46
2023-07-24T00:10:46.063Z,26.72
2023-07-24T00:13:16.219Z,26.66
2023-07-24T00:15:53.390Z,26.51
2023-07-24T00:18:24.580Z,26.46
2023-07-24T00:20:52.677Z,26.16
2023-07-24T00:23:23.595Z,26.28
2023-07-24T00:25:55.347Z,26.23
2023-07-24T00:28:25.711Z,26.08
2023-07-24T00:31:12.239Z,25.97
2023-07-24T00:33:48.682Z,26.12
2023-07-24T00:36:26.737Z,26.04
2023-07-24T00:38:55.320Z,26.33
2023-07-24T00:41:24.771Z,25.95
2023-07-24T00:44:06.394Z,25.96
2023-07-24T00:46:47.573Z,25.96
2023-07-24T00:49:21.476Z,25.88
2023-07-24T00:51:53.406Z,25.92
2023-07-24T00:54:24.800Z,26.07
2023-07-24T00:57:01.754Z,26.02
2023-07-24T00:59:35.084Z,25.72
2023-07-24T01:02:23.702Z,25.81
2023-07-24T01:04:53.138Z,25.92
2023-07-24T01:07:23.157Z,25.99
2023-07-24T01:09:53.197Z,25.95
2023-07-24T01:12:27.615Z,25.80
2023-07-24T01:15:08.802Z,25.86
2023-07-24T01:17:52.780Z,25.91
2023-07-24T01:20:23.748Z,25.92
2023-07-24T01:23:07.781Z,25.76
2023-07-24T01:25:39.095Z,25.64
2023-07-24T01:28:15.557Z,25.82
2023-07-24T01:30:46.105Z,25.78
2023-07-24T01:33:26.416Z,25.51
2023-07-24T01:35:57.804Z,25.48
2023-07-24T01:38:30.763Z,25.54
2023-07-24T01:40:59.470Z,25.74
2023-07-24T01:43:31.252Z,25.72
2023-07-24T01:46:05.065Z,25.51
2023-07-24T01:48:34.527Z,25.67
2023-07-24T01:51:09.316Z,25.42
2023-07-24T01:53:43.088Z,25.53
2023-07-24T01:56:15.328Z,25.46
2023-07-24T01:58:48.293Z,25.62
2023-07-24T02:01:19.025Z,25.38
2023-07-24T02:03:53.566Z,25.35
2023-07-24T02:06:22.271Z,25.39
2023-07-24T02:08:53.024Z,25.41
2023-07-24T02:11:22.775Z,25.49
2023-07-24T02:14:00.723Z,25.62
2023-07-24T02:16:30.655Z,25.47
2023-07-24T02:19:02.997Z,25.52
2023-07-24T02:21:41.994Z,25.27
2023-07-24T02:24:10.750Z,25.23
2023-07-24T02:26:42.355Z,25.22
2023-07-24T02:29:13.236Z,25.38
2023-07-24T02:31:44.494Z,25.43
2023-07-24T02:34:13.221Z,25.20
2023-07-24T02:36:45.052Z,25.15
2023-07-24T02:39:13.229Z,25.08
2023-07-24T02:41:42.842Z,25.05
2023-07-24T02:44:19.589Z,25.03
2023-07-24T02:46:53.726Z,25.05
2023-07-24T02:49:33.398Z,24.78
2023-07-24T02:52:02.815Z,24.91
2023-07-24T02:54:31.604Z,25.06
2023-07-24T02:57:02.227Z,24.98
2023-07-24T02:59:38.714Z,25.12
2023-07-24T03:02:12.203Z,25.07
2023-07-24T03:04:43.352Z,25.06
2023-07-24T03:07:12.454Z,25.12
2023-07-24T03:09:53.713Z,24.80
2023-07-24T03:12:23.174Z,24.93
2023-07-24T03:14:52.902Z,24.74
2023-07-24T03:17:22.470Z,24.84
2023-07-24T03:19:56.372Z,24.69
2023-07-24T03:22:24.745Z,24.59
2023-07-24T03:24:55.506Z,24.68
2023-07-24T03:27:27.420Z,24.74
2023-07-24T03:30:02.501Z,24.72
2023-07-24T03:32:34.576Z,24.77
2023-07-24T03:35:03.486Z,24.79
2023-07-24T03:37:32.285Z,24.50
2023-07-24T03:40:01.742Z,24.74
2023-07-24T03:42:36.387Z,24.64
2023-07-24T03:45:20.307Z,24.91
2023-07-24T03:47:51.421Z,24.63
2023-07-24T03:50:21.024Z,24.73
2023-07-24T03:52:49.402Z,24.76
2023-07-24T03:55:18.480Z,24.62
2023-07-24T03:57:47.747Z,24.82
2023-07-24T04:00:29.474Z,24.57
2023-07-24T04:02:58.389Z,24.83
2023-07-24T04:05:36.036Z,24.93
2023-07-24T04:08:07.361Z,24.75
2023-07-24T04:10:41.491Z,24.92
2023-07-24T04:13:12.475Z,24.86
2023-07-24T04:15:54.096Z,24.76
2023-07-24T04:18:22.279Z,24.86
2023-07-24T04:20:54.276Z,24.81
2023-07-24T04:23:25.487Z,24.72
2023-07-24T04:25:56.704Z,24.56
2023-07-24T04:28:28.659Z,24.61
2023-07-24T04:31:04.132Z,24.82
2023-07-24T04:33:33.518Z,24.73
2023-07-24T04:36:02.520Z,24.70
2023-07-24T04:38:31.573Z,24.74
2023-07-24T04:41:03.268Z,24.49
2023-07-24T04:43:33.980Z,24.44
2023-07-24T04:46:18.130Z,24.60
2023-07-24T04:48:46.194Z,24.48
2023-07-24T04:51:15.364Z,24.58
2023-07-24T04:53:57.825Z,24.76
2023-07-24T04:56:29.212Z,24.58
2023-07-24T04:58:59.396Z,24.53
2023-07-24T05:01:34.888Z,24.45
2023-07-24T05:04:06.927Z,24.42
2023-07-24T05:06:39.475Z,24.54
2023-07-24T05:09:11.176Z,24.46
2023-07-24T05:11:40.713Z,24.53
2023-07-24T05:14:14.850Z,24.72
2023-07-24T05:16:53.846Z,24.59
2023-07-24T05:19:26.615Z,24.27
2023-07-24T05:21:55.464Z,24.54
2023-07-24T05:24:31.837Z,24.57
2023-07-24T05:27:03.492Z,24.67
2023-07-24T05:29:35.175Z,24.32
2023-07-24T05:32:06.742Z,24.77
2023-07-24T05:34:35.712Z,24.52
2023-07-24T05:37:08.582Z,24.61
2023-07-24T05:39:40.932Z,24.67
2023-07-24T05:42:13.161Z,24.84
2023-07-24T05:44:41.947Z,24.81
2023-07-24T05:47:25.284Z,25.02
2023-07-24T05:50:04.092Z,25.31
2023-07-24T05:52:39.771Z,25.21
2023-07-24T05:55:12.174Z,24.93
2023-07-24T05:57:42.879Z,25.05
2023-07-24T06:00:12.425Z,25.43
2023-07-24T06:02:47.315Z,25.60
2023-07-24T06:05:15.732Z,25.56
2023-07-24T06:07:46.432Z,25.74
2023-07-24T06:10:25.571Z,25.81
2023-07-24T06:12:54.924Z,25.84
2023-07-24T06:15:30.870Z,25.90
2023-07-24T06:18:15.585Z,25.83
2023-07-24T06:20:47.630Z,25.74
2023-07-24T06:23:18.586Z,25.93
2023-07-24T06:25:49.523Z,26.02
2023-07-24T06:28:21.737Z,26.01
2023-07-24T06:30:52.857Z,26.08
2023-07-24T06:33:25.917Z,26.29
2023-07-24T06:35:56.693Z,26.35
2023-07-24T06:38:26.820Z,26.51
2023-07-24T06:40:59.425Z,26.60
2023-07-24T06:43:28.946Z,26.73
2023-07-24T06:45:58.606Z,26.72
2023-07-24T06:48:42.547Z,26.74
2023-07-24T06:51:19.657Z,26.59
2023-07-24T06:54:03.977Z,26.74
2023-07-24T06:56:33.193Z,26.80
2023-07-24T06:59:03.698Z,26.91
2023-07-24T07:01:32.611Z,26.99
2023-07-24T07:04:03.437Z,27.09
2023-07-24T07:06:34.709Z,27.23
2023-07-24T07:09:14.594Z,27.34
2023-07-24T07:11:47.550Z,27.40
2023-07-24T07:14:18.045Z,27.47
2023-07-24T07:16:53.802Z,27.47
2023-07-24T07:19:32.409Z,27.60
2023-07-24T07:22:00.674Z,27.53
2023-07-24T07:24:44.612Z,27.65
2023-07-24T07:27:20.667Z,27.66
2023-07-24T07:29:50.243Z,27.79
2023-07-24T07:32:33.400Z,27.93
2023-07-24T07:35:04.594Z,27.93
2023-07-24T07:37:33.556Z,27.82
2023-07-24T07:40:03.670Z,27.87
2023-07-24T07:42:37.080Z,28.00
2023-07-24T07:45:08.653Z,27.90
2023-07-24T07:47:41.455Z,28.06
2023-07-24T07:50:21.662Z,28.15
2023-07-24T07:53:04.229Z,28.20
2023-07-24T07:55:38.450Z,28.21
2023-07-24T07:58:07.889Z,28.24
2023-07-24T08:00:37.243Z,28.34
2023-07-24T08:03:08.848Z,28.50
2023-07-24T08:05:45.757Z,28.60
2023-07-24T08:08:16.995Z,28.61
2023-07-24T08:10:47.960Z,28.68
2023-07-24T08:13:25.493Z,28.67
2023-07-24T08:16:01.339Z,28.80
2023-07-24T08:18:32.664Z,28.94
2023-07-24T08:21:03.295Z,29.05
2023-07-24T08:23:32.637Z,28.97
2023-07-24T08:26:04.265Z,29.02
2023-07-24T08:28:38.096Z,29.06
2023-07-24T08:31:07.739Z,29.09
2023-07-24T08:33:37.342Z,29.13
2023-07-24T08:36:10.149Z,29.24
2023-07-24T08:38:38.690Z,29.34
2023-07-24T08:41:15.893Z,29.44
2023-07-24T08:43:47.475Z,29.51
2023-07-24T08:46:25.654Z,29.60
2023-07-24T08:49:03.802Z,29.60
2023-07-24T08:51:40.965Z,29.68
2023-07-24T08:54:10.807Z,29.71
2023-07-24T08:56:43.916Z,29.78
2023-07-24T08:59:13.084Z,29.94
2023-07-24T09:01:42.324Z,29.97
2023-07-24T09:04:12.058Z,29.97
2023-07-24T09:06:50.203Z,29.99
2023-07-24T09:09:22.068Z,30.12
2023-07-24T09:11:57.310Z,30.26
2023-07-24T09:14:31.279Z,30.38
2023-07-24T09:17:08.939Z,30.46
2023-07-24T09:19:50.285Z,30.56
2023-07-24T09:22:29.151Z,30.74
2023-07-24T09:25:09.699Z,30.95
2023-07-24T09:27:41.154Z,31.03
2023-07-24T09:30:15.908Z,31.12
2023-07-24T09:32:44.836Z,31.23
2023-07-24T09:35:28.306Z,31.29
2023-07-24T09:38:15.172Z,31.37
2023-07-24T09:40:51.751Z,31.52
2023-07-24T09:43:39.901Z,31.59
2023-07-24T09:46:20.413Z,31.70
2023-07-24T09:49:08.833Z,31.93
2023-07-24T09:51:40.134Z,32.05
2023-07-24T09:54:23.515Z,32.10
2023-07-24T09:57:15.024Z,32.28
2023-07-24T09:59:49.518Z,32.52
2023-07-24T10:02:21.019Z,32.58
2023-07-24T10:04:52.830Z,32.78
2023-07-24T10:07:25.724Z,32.54
2023-07-24T10:09:56.336Z,32.41
2023-07-24T10:12:25.097Z,32.38
2023-07-24T10:14:57.482Z,32.41
2023-07-24T10:17:46.452Z,32.36
2023-07-24T10:20:21.231Z,32.60
2023-07-24T10:22:53.011Z,32.80
2023-07-24T10:25:35.183Z,33.08
2023-07-24T10:28:08.818Z,33.24
2023-07-24T10:30:40.622Z,33.36
2023-07-24T10:33:10.822Z,33.47
2023-07-24T10:35:44.372Z,33.60
2023-07-24T10:38:15.788Z,33.73
2023-07-24T10:40:50.652Z,33.79
2023-07-24T10:43:30.437Z,33.95
2023-07-24T10:46:10.501Z,34.05
2023-07-24T10:48:45.093Z,34.16
2023-07-24T10:51:18.881Z,34.23
2023-07-24T10:53:53.913Z,34.28
2023-07-24T10:56:24.867Z,34.39
2023-07-24T10:59:09.957Z,34.59
2023-07-24T11:01:49.452Z,34.80
2023-07-24T11:04:25.206Z,35.00
2023-07-24T11:06:57.854Z,34.89
2023-07-24T11:09:37.297Z,34.84
2023-07-24T11:12:17.353Z,34.84
2023-07-24T11:15:00.272Z,34.95
2023-07-24T11:17:41.640Z,35.08
2023-07-24T11:20:14.790Z,34.88
2023-07-24T11:22:46.014Z,34.65
2023-07-24T11:25:18.054Z,34.69
2023-07-24T11:27:57.945Z,35.00
2023-07-24T11:30:27.165Z,35.30
2023-07-24T11:33:01.428Z,35.25
2023-07-24T11:35:32.648Z,35.19
2023-07-24T11:38:01.075Z,35.10
2023-07-24T11:40:37.816Z,35.06
2023-07-24T11:43:22.897Z,35.03
2023-07-24T11:45:57.505Z,34.86
2023-07-24T11:48:29.371Z,34.67
2023-07-24T11:50:59.399Z,34.53
2023-07-24T11:53:38.738Z,34.53
2023-07-24T11:56:23.699Z,34.32
2023-07-24T11:59:02.248Z,34.43
2023-07-24T12:01:33.992Z,34.66
2023-07-24T12:04:05.838Z,34.98
2023-07-24T12:06:35.150Z,34.67
2023-07-24T12:09:06.521Z,34.58
2023-07-24T12:11:45.137Z,34.52
2023-07-24T12:14:17.962Z,34.45
2023-07-24T12:16:55.539Z,34.41
2023-07-24T12:19:27.213Z,34.45
2023-07-24T12:21:57.319Z,34.28
2023-07-24T12:24:26.072Z,34.28
2023-07-24T12:26:55.922Z,34.17
2023-07-24T12:29:30.141Z,34.13
2023-07-24T12:32:07.260Z,34.31
2023-07-24T12:34:36.547Z,34.43
2023-07-24T12:37:05.863Z,34.90
2023-07-24T12:39:36.714Z,35.28
2023-07-24T12:42:07.351Z,35.76
2023-07-24T12:44:38.678Z,35.88
2023-07-24T12:47:08.620Z,36.05
2023-07-24T12:49:37.134Z,36.21
2023-07-24T12:52:09.910Z,36.46
2023-07-24T12:54:59.221Z,36.38
2023-07-24T12:57:36.349Z,36.25
2023-07-24T13:00:10.897Z,36.18
2023-07-24T13:02:43.110Z,36.22
2023-07-24T13:05:15.451Z,35.92
2023-07-24T13:07:46.830Z,36.04
2023-07-24T13:10:21.430Z,36.09
2023-07-24T13:12:50.651Z,36.25
2023-07-24T13:15:22.569Z,36.33
2023-07-24T13:17:56.036Z,36.29
2023-07-24T13:20:24.480Z,36.42
2023-07-24T13:22:54.367Z,36.66
2023-07-24T13:25:36.824Z,36.77
2023-07-24T13:28:06.447Z,37.01
2023-07-24T13:30:40.290Z,37.19
2023-07-24T13:33:12.268Z,37.04
2023-07-24T13:35:44.322Z,36.76
2023-07-24T13:38:19.302Z,36.58
2023-07-24T13:40:50.755Z,36.53
2023-07-24T13:43:20.988Z,36.88
2023-07-24T13:45:58.558Z,37.16
2023-07-24T13:48:29.304Z,37.18
2023-07-24T13:50:58.264Z,37.24
2023-07-24T13:53:28.817Z,37.31
2023-07-24T13:56:03.113Z,36.75
2023-07-24T13:58:36.960Z,36.93
2023-07-24T14:01:10.405Z,36.72
2023-07-24T14:03:58.084Z,36.56
2023-07-24T14:06:30.685Z,36.56
2023-07-24T14:09:07.497Z,36.45
2023-07-24T14:11:39.440Z,36.21
2023-07-24T14:14:10.616Z,36.05
2023-07-24T14:16:46.660Z,35.99
2023-07-24T14:19:27.440Z,35.46
2023-07-24T14:22:06.404Z,35.85
2023-07-24T14:24:49.690Z,35.86
2023-07-24T14:27:28.693Z,36.02
2023-07-24T14:30:06.799Z,35.82
2023-07-24T14:32:39.603Z,35.59
2023-07-24T14:35:14.033Z,35.42
2023-07-24T14:40:37.503Z,35.04
2023-07-24T14:43:18.380Z,35.60
2023-07-24T14:46:00.288Z,35.92
2023-07-24T14:48:40.732Z,36.54
2023-07-24T14:51:15.009Z,36.34
2023-07-24T14:53:50.125Z,35.72
2023-07-24T14:56:27.447Z,35.50
2023-07-24T14:59:02.266Z,35.05
2023-07-24T15:01:32.954Z,35.16
2023-07-24T15:04:05.967Z,35.42
2023-07-24T15:06:37.346Z,35.48
2023-07-24T15:09:10.702Z,35.46
2023-07-24T15:11:53.328Z,35.81
2023-07-24T15:14:31.102Z,36.00
2023-07-24T15:17:13.759Z,34.81
2023-07-24T15:20:00.946Z,34.65
2023-07-24T15:22:33.952Z,34.29
2023-07-24T15:25:11.192Z,34.31
2023-07-24T15:27:44.409Z,33.90
2023-07-24T15:30:19.302Z,34.03
2023-07-24T15:33:00.731Z,34.00
2023-07-24T15:35:44.072Z,34.38
2023-07-24T15:38:15.099Z,34.19
2023-07-24T15:40:45.830Z,33.70
2023-07-24T15:43:20.900Z,33.56
2023-07-24T15:45:51.902Z,33.53
2023-07-24T15:48:26.310Z,33.87
2023-07-24T15:50:59.649Z,33.26
2023-07-24T15:53:33.187Z,33.01
2023-07-24T15:56:10.981Z,33.43
2023-07-24T15:58:49.038Z,33.45
2023-07-24T16:01:20.383Z,33.10
2023-07-24T16:03:57.871Z,33.07
2023-07-24T16:06:36.545Z,33.16
2023-07-24T16:09:09.619Z,33.23
2023-07-24T16:11:38.882Z,33.34
2023-07-24T16:14:08.186Z,33.31
2023-07-24T16:16:40.216Z,33.28
2023-07-24T16:19:17.383Z,33.23
2023-07-24T16:21:51.059Z,33.10
2023-07-24T16:24:32.296Z,32.83
2023-07-24T16:27:03.019Z,32.96
2023-07-24T16:29:37.335Z,33.06
2023-07-24T16:32:10.856Z,32.87
2023-07-24T16:34:42.574Z,32.67
2023-07-24T16:37:34.808Z,32.64
2023-07-24T16:40:10.687Z,32.64
2023-07-24T16:42:42.791Z,32.43
2023-07-24T16:45:29.265Z,32.53
2023-07-24T16:48:10.430Z,32.43
2023-07-24T16:50:42.233Z,32.32
2023-07-24T16:53:20.820Z,32.33
2023-07-24T16:56:01.190Z,32.35
2023-07-24T16:58:39.952Z,32.11
2023-07-24T17:01:22.047Z,32.02
2023-07-24T17:04:05.489Z,32.09
2023-07-24T17:06:38.775Z,31.88
2023-07-24T17:09:24.452Z,32.06
2023-07-24T17:11:56.627Z,31.79
2023-07-24T17:14:43.246Z,32.03
2023-07-24T17:17:19.226Z,31.81
2023-07-24T17:19:54.229Z,31.79
2023-07-24T17:22:42.101Z,31.93
2023-07-24T17:25:31.235Z,31.85
2023-07-24T17:28:11.586Z,31.84
2023-07-24T17:30:45.767Z,31.61
2023-07-24T17:33:28.353Z,31.62
2023-07-24T17:35:59.894Z,31.53
2023-07-24T17:38:38.381Z,31.49
2023-07-24T17:41:22.931Z,31.49
2023-07-24T17:44:00.507Z,31.62
2023-07-24T17:46:33.802Z,31.15
2023-07-24T17:49:08.980Z,31.02
2023-07-24T17:51:52.249Z,30.60
2023-07-24T17:54:26.054Z,29.61
2023-07-24T17:57:00.585Z,28.56
2023-07-24T17:59:34.611Z,28.53
2023-07-24T18:02:14.666Z,28.51
2023-07-24T18:04:50.328Z,28.29
2023-07-24T18:07:44.037Z,27.81
2023-07-24T18:10:24.400Z,27.70
2023-07-24T18:13:09.342Z,27.65
2023-07-24T18:15:49.908Z,27.76
2023-07-24T18:18:30.026Z,27.82
2023-07-24T18:21:11.234Z,27.90
2023-07-24T18:23:53.050Z,27.91
2023-07-24T18:26:27.840Z,28.13
2023-07-24T18:29:15.849Z,27.89
2023-07-24T18:31:56.800Z,27.80
2023-07-24T18:34:31.577Z,27.91
2023-07-24T18:37:09.393Z,27.53
2023-07-24T18:39:45.091Z,27.01
2023-07-24T18:42:22.458Z,26.96
2023-07-24T18:45:07.763Z,26.64
2023-07-24T18:47:47.385Z,26.46
2023-07-24T18:50:20.653Z,26.18
2023-07-24T18:52:59.743Z,25.68
2023-07-24T18:55:40.326Z,25.82
2023-07-24T18:58:21.749Z,25.77
2023-07-24T19:01:05.528Z,25.53
2023-07-24T19:03:49.595Z,25.09
2023-07-24T19:06:28.083Z,25.44
2023-07-24T19:11:56.964Z,25.01
2023-07-24T19:14:45.323Z,25.07
2023-07-24T19:17:23.527Z,24.98
2023-07-24T19:20:34.642Z,25.13
2023-07-24T19:23:09.347Z,25.48
2023-07-24T19:25:59.666Z,25.21
2023-07-24T19:28:42.088Z,25.14
2023-07-24T19:31:27.192Z,25.27
2023-07-24T19:34:24.632Z,25.36
2023-07-24T19:37:13.281Z,25.38
2023-07-24T19:39:48.620Z,25.21
2023-07-24T19:42:21.823Z,25.08
2023-07-24T19:45:14.573Z,25.10
2023-07-24T19:48:02.008Z,25.51
2023-07-24T19:50:52.641Z,25.39
2023-07-24T19:53:36.926Z,25.35
2023-07-24T19:56:12.793Z,25.51
2023-07-24T19:58:56.731Z,25.36
2023-07-24T20:01:31.939Z,25.38
2023-07-24T20:04:08.112Z,25.58
2023-07-24T20:06:53.389Z,25.54
2023-07-24T20:09:34.219Z,25.28
2023-07-24T20:12:16.526Z,25.36
2023-07-24T20:15:01.825Z,25.42
2023-07-24T20:17:35.559Z,25.30
2023-07-24T20:20:13.519Z,25.21
2023-07-24T20:22:52.672Z,25.03
2023-07-24T20:25:31.760Z,25.27
2023-07-24T20:28:07.365Z,25.15
2023-07-24T20:30:55.324Z,25.36
2023-07-24T20:33:31.279Z,25.35
2023-07-24T20:36:16.758Z,25.32
2023-07-24T20:39:05.031Z,25.60
2023-07-24T20:41:46.733Z,25.54
2023-07-24T20:44:34.841Z,25.59
2023-07-24T20:47:10.944Z,25.77
2023-07-24T20:49:52.902Z,25.60
2023-07-24T20:52:35.062Z,25.69
2023-07-24T20:55:16.872Z,25.43
2023-07-24T20:57:49.579Z,25.65
2023-07-24T21:00:21.731Z,25.60
2023-07-24T21:02:53.738Z,25.56
2023-07-24T21:05:22.160Z,25.62
2023-07-24T21:07:53.138Z,25.54
2023-07-24T21:10:39.247Z,25.50
2023-07-24T21:13:08.250Z,25.32
2023-07-24T21:15:39.971Z,25.31
2023-07-24T21:18:12.026Z,25.17
2023-07-24T21:20:41.781Z,25.15
2023-07-24T21:23:17.572Z,25.35
2023-07-24T21:25:57.988Z,25.27
2023-07-24T21:28:31.884Z,25.42
2023-07-24T21:31:10.091Z,25.16
2023-07-24T21:33:44.737Z,25.19
2023-07-24T21:36:14.459Z,25.32
2023-07-24T21:38:47.057Z,25.24
2023-07-24T21:41:21.786Z,25.13
2023-07-24T21:44:01.815Z,25.11
2023-07-24T21:46:38.721Z,25.31
2023-07-24T21:49:09.418Z,25.27
2023-07-24T21:51:44.082Z,25.44
2023-07-24T21:54:16.015Z,25.46
2023-07-24T21:56:53.561Z,25.55
2023-07-24T21:59:23.655Z,25.41
2023-07-24T22:01:59.717Z,25.57
2023-07-24T22:04:29.593Z,25.69
2023-07-24T22:07:09.179Z,25.61
2023-07-24T22:09:46.755Z,25.59
2023-07-24T22:12:21.743Z,25.56
2023-07-24T22:14:52.256Z,25.21
2023-07-24T22:17:28.335Z,25.50
2023-07-24T22:20:00.561Z,25.38
2023-07-24T22:22:31.643Z,25.16
2023-07-24T22:25:01.347Z,25.36
2023-07-24T22:27:33.527Z,25.33
2023-07-24T22:30:03.245Z,25.36
2023-07-24T22:32:31.966Z,25.33
2023-07-24T22:35:03.125Z,25.44
2023-07-24T22:37:38.053Z,25.55
2023-07-24T22:40:12.977Z,25.58
2023-07-24T22:42:57.482Z,25.80
2023-07-24T22:45:28.966Z,25.81
2023-07-24T22:48:03.769Z,25.71
2023-07-24T22:50:35.105Z,25.74
2023-07-24T22:53:13.290Z,25.89
2023-07-24T22:55:46.945Z,25.70
2023-07-24T22:58:21.113Z,25.83
2023-07-24T23:00:52.354Z,25.45
2023-07-24T23:03:24.395Z,25.44
2023-07-24T23:05:56.324Z,25.56
2023-07-24T23:08:25.612Z,25.60
2023-07-24T23:11:01.495Z,25.60
2023-07-24T23:13:32.723Z,25.62
2023-07-24T23:16:03.924Z,25.65
2023-07-24T23:18:35.731Z,25.69
2023-07-24T23:21:07.065Z,25.65
2023-07-24T23:23:44.194Z,25.81
2023-07-24T23:26:19.540Z,25.73
2023-07-24T23:29:00.760Z,25.81
2023-07-24T23:31:36.573Z,25.69
2023-07-24T23:34:06.057Z,25.75
2023-07-24T23:36:36.077Z,25.78
2023-07-24T23:39:07.542Z,25.72
2023-07-24T23:41:38.461Z,25.70
2023-07-24T23:44:12.761Z,25.61
2023-07-24T23:46:46.951Z,25.53
2023-07-24T23:49:18.899Z,25.26
2023-07-24T23:51:47.044Z,25.07
2023-07-24T23:54:18.012Z,24.92
2023-07-24T23:56:49.841Z,24.71
2023-07-24T23:59:26.874Z,24.76
